sensor_id;sensor_type;location;lat;lon;timestamp;pressure;altitude;pressure_sealevel;temperature;humidity
44974;BME280;60981;50.720;11.342;2023-06-14T00:00:40;99502.19;;;14.54;53.76
44974;BME280;60981;50.720;11.342;2023-06-14T00:01:44;99481.97;;;14.47;53.55
44974;BME280;60981;50.720;11.342;2023-06-14T00:02:50;99484.06;;;14.45;53.61
44974;BME280;60981;50.720;11.342;2023-06-14T00:03:52;99505.22;;;14.58;53.25
44974;BME280;60981;50.720;11.342;2023-06-14T00:04:54;99473.38;;;14.45;53.21
44974;BME280;60981;50.720;11.342;2023-06-14T00:05:56;99506.72;;;14.54;53.56
44974;BME280;60981;50.720;11.342;2023-06-14T00:06:58;99490.22;;;14.57;54.48
44974;BME280;60981;50.720;11.342;2023-06-14T00:07:59;99496.97;;;14.48;54.31
44974;BME280;60981;50.720;11.342;2023-06-14T00:09:02;99509.63;;;14.52;54.15
44974;BME280;60981;50.720;11.342;2023-06-14T00:10:04;99467.53;;;14.36;54.18
44974;BME280;60981;50.720;11.342;2023-06-14T00:11:07;99515.91;;;14.46;53.79
44974;BME280;60981;50.720;11.342;2023-06-14T00:12:08;99531.25;;;14.27;54.16
44974;BME280;60981;50.720;11.342;2023-06-14T00:13:11;99459.56;;;14.13;54.27
44974;BME280;60981;50.720;11.342;2023-06-14T00:14:13;99460.94;;;14.15;54.21
44974;BME280;60981;50.720;11.342;2023-06-14T00:15:15;99449.66;;;14.25;54.34
44974;BME280;60981;50.720;11.342;2023-06-14T00:16:17;99423.16;;;14.23;54.10
44974;BME280;60981;50.720;11.342;2023-06-14T00:17:21;99404.25;;;14.13;54.11
44974;BME280;60981;50.720;11.342;2023-06-14T00:18:23;99396.25;;;14.01;54.19
44974;BME280;60981;50.720;11.342;2023-06-14T00:19:31;99378.94;;;14.04;54.62
44974;BME280;60981;50.720;11.342;2023-06-14T00:20:36;99391.69;;;14.14;54.53
44974;BME280;60981;50.720;11.342;2023-06-14T00:21:38;99338.44;;;13.84;54.61
44974;BME280;60981;50.720;11.342;2023-06-14T00:22:40;99323.41;;;13.94;55.02
44974;BME280;60981;50.720;11.342;2023-06-14T00:23:42;99334.88;;;14.06;54.57
44974;BME280;60981;50.720;11.342;2023-06-14T00:24:44;99367.53;;;14.09;54.38
44974;BME280;60981;50.720;11.342;2023-06-14T00:25:46;99385.75;;;14.12;54.15
44974;BME280;60981;50.720;11.342;2023-06-14T00:26:47;99343.84;;;14.00;54.37
44974;BME280;60981;50.720;11.342;2023-06-14T00:27:49;99344.91;;;13.99;54.39
44974;BME280;60981;50.720;11.342;2023-06-14T00:28:52;99255.72;;;13.89;54.81
44974;BME280;60981;50.720;11.342;2023-06-14T00:29:54;99281.47;;;13.95;54.61
44974;BME280;60981;50.720;11.342;2023-06-14T00:30:56;99332.31;;;14.12;54.70
44974;BME280;60981;50.720;11.342;2023-06-14T00:31:58;99293.91;;;14.01;54.72
44974;BME280;60981;50.720;11.342;2023-06-14T00:33:00;99312.13;;;14.04;54.62
44974;BME280;60981;50.720;11.342;2023-06-14T00:34:02;99289.34;;;14.01;54.54
44974;BME280;60981;50.720;11.342;2023-06-14T00:35:05;99307.22;;;14.13;54.40
44974;BME280;60981;50.720;11.342;2023-06-14T00:36:07;99333.38;;;14.11;54.57
44974;BME280;60981;50.720;11.342;2023-06-14T00:37:09;99284.63;;;13.92;54.61
44974;BME280;60981;50.720;11.342;2023-06-14T00:38:11;99293.31;;;13.99;54.90
44974;BME280;60981;50.720;11.342;2023-06-14T00:39:13;99152.44;;;13.66;55.23
44974;BME280;60981;50.720;11.342;2023-06-14T00:40:15;99131.13;;;13.83;55.42
44974;BME280;60981;50.720;11.342;2023-06-14T00:41:17;99126.59;;;13.83;55.18
44974;BME280;60981;50.720;11.342;2023-06-14T00:42:27;99155.00;;;13.89;55.56
44974;BME280;60981;50.720;11.342;2023-06-14T00:43:29;99127.94;;;13.69;55.57
44974;BME280;60981;50.720;11.342;2023-06-14T00:44:31;99153.31;;;13.83;55.75
44974;BME280;60981;50.720;11.342;2023-06-14T00:45:33;99137.50;;;13.82;55.80
44974;BME280;60981;50.720;11.342;2023-06-14T00:46:37;99119.34;;;13.67;55.92
44974;BME280;60981;50.720;11.342;2023-06-14T00:47:41;99095.97;;;13.74;55.62
44974;BME280;60981;50.720;11.342;2023-06-14T00:48:44;99053.72;;;13.54;55.75
44974;BME280;60981;50.720;11.342;2023-06-14T00:49:47;99095.81;;;13.81;55.79
44974;BME280;60981;50.720;11.342;2023-06-14T00:50:50;99059.28;;;13.53;56.14
44974;BME280;60981;50.720;11.342;2023-06-14T00:51:53;99069.81;;;13.59;56.36
44974;BME280;60981;50.720;11.342;2023-06-14T00:52:56;99072.16;;;13.56;56.49
44974;BME280;60981;50.720;11.342;2023-06-14T00:53:58;99083.88;;;13.55;56.47
44974;BME280;60981;50.720;11.342;2023-06-14T00:55:00;99082.72;;;13.51;56.88
44974;BME280;60981;50.720;11.342;2023-06-14T00:56:02;99044.44;;;13.17;57.25
44974;BME280;60981;50.720;11.342;2023-06-14T00:57:05;99063.81;;;13.24;57.53
44974;BME280;60981;50.720;11.342;2023-06-14T00:58:07;99086.63;;;13.31;57.81
44974;BME280;60981;50.720;11.342;2023-06-14T00:59:10;99054.09;;;13.06;57.94
44974;BME280;60981;50.720;11.342;2023-06-14T01:11:59;99080.19;;;13.04;57.77
44974;BME280;60981;50.720;11.342;2023-06-14T01:13:19;99099.06;;;13.14;58.06
44974;BME280;60981;50.720;11.342;2023-06-14T01:14:22;99094.22;;;13.11;58.51
44974;BME280;60981;50.720;11.342;2023-06-14T01:15:26;99078.72;;;12.96;58.28
44974;BME280;60981;50.720;11.342;2023-06-14T01:16:30;99093.19;;;13.00;58.32
44974;BME280;60981;50.720;11.342;2023-06-14T01:17:33;99094.47;;;12.98;58.41
44974;BME280;60981;50.720;11.342;2023-06-14T01:18:36;99072.59;;;12.84;58.55
44974;BME280;60981;50.720;11.342;2023-06-14T01:19:37;99065.41;;;12.85;58.49
44974;BME280;60981;50.720;11.342;2023-06-14T01:20:39;99088.09;;;12.99;58.46
44974;BME280;60981;50.720;11.342;2023-06-14T01:21:42;99078.25;;;12.88;58.74
44974;BME280;60981;50.720;11.342;2023-06-14T01:22:53;99089.38;;;12.96;58.42
44974;BME280;60981;50.720;11.342;2023-06-14T01:23:55;99076.63;;;12.87;58.59
44974;BME280;60981;50.720;11.342;2023-06-14T01:24:57;99082.41;;;12.95;58.44
44974;BME280;60981;50.720;11.342;2023-06-14T01:26:01;99094.13;;;12.94;58.63
44974;BME280;60981;50.720;11.342;2023-06-14T01:27:05;99100.28;;;12.95;58.78
44974;BME280;60981;50.720;11.342;2023-06-14T01:28:08;99090.69;;;12.82;59.03
44974;BME280;60981;50.720;11.342;2023-06-14T01:29:14;99097.53;;;12.78;59.39
44974;BME280;60981;50.720;11.342;2023-06-14T01:30:20;99097.53;;;12.78;59.39
44974;BME280;60981;50.720;11.342;2023-06-14T01:31:24;99107.84;;;12.74;59.50
44974;BME280;60981;50.720;11.342;2023-06-14T01:32:27;99092.09;;;12.61;59.65
44974;BME280;60981;50.720;11.342;2023-06-14T01:33:32;99095.34;;;12.63;59.72
44974;BME280;60981;50.720;11.342;2023-06-14T01:34:35;99094.41;;;12.58;60.12
44974;BME280;60981;50.720;11.342;2023-06-14T01:35:37;99066.25;;;12.38;59.88
44974;BME280;60981;50.720;11.342;2023-06-14T01:36:41;99091.28;;;12.61;59.77
44974;BME280;60981;50.720;11.342;2023-06-14T01:37:43;99096.38;;;12.62;60.04
44974;BME280;60981;50.720;11.342;2023-06-14T01:38:48;99093.16;;;12.60;60.12
44974;BME280;60981;50.720;11.342;2023-06-14T01:39:52;99083.53;;;12.59;60.14
44974;BME280;60981;50.720;11.342;2023-06-14T01:40:55;99102.06;;;12.66;60.23
44974;BME280;60981;50.720;11.342;2023-06-14T01:41:59;99084.78;;;12.45;60.35
44974;BME280;60981;50.720;11.342;2023-06-14T01:43:03;99101.50;;;12.64;60.32
44974;BME280;60981;50.720;11.342;2023-06-14T01:44:05;99103.56;;;12.62;60.40
44974;BME280;60981;50.720;11.342;2023-06-14T01:45:09;99084.66;;;12.40;60.28
44974;BME280;60981;50.720;11.342;2023-06-14T01:46:13;99096.03;;;12.47;60.33
44974;BME280;60981;50.720;11.342;2023-06-14T01:47:16;99067.41;;;12.31;60.36
44974;BME280;60981;50.720;11.342;2023-06-14T01:48:18;99101.34;;;12.47;60.40
44974;BME280;60981;50.720;11.342;2023-06-14T01:49:21;99063.22;;;12.23;60.30
44974;BME280;60981;50.720;11.342;2023-06-14T01:50:23;99088.38;;;12.39;60.40
44974;BME280;60981;50.720;11.342;2023-06-14T01:51:25;99099.38;;;12.42;60.33
44974;BME280;60981;50.720;11.342;2023-06-14T01:52:27;99109.16;;;12.49;60.56
44974;BME280;60981;50.720;11.342;2023-06-14T01:53:29;99079.09;;;12.30;60.53
44974;BME280;60981;50.720;11.342;2023-06-14T01:54:30;99102.97;;;12.48;60.43
44974;BME280;60981;50.720;11.342;2023-06-14T01:55:32;99110.53;;;12.51;60.64
44974;BME280;60981;50.720;11.342;2023-06-14T01:56:39;99087.78;;;12.37;60.46
44974;BME280;60981;50.720;11.342;2023-06-14T01:57:41;99111.56;;;12.50;60.17
44974;BME280;60981;50.720;11.342;2023-06-14T01:58:44;99087.69;;;12.32;60.55
44974;BME280;60981;50.720;11.342;2023-06-14T01:59:46;99101.00;;;12.43;60.73
44974;BME280;60981;50.720;11.342;2023-06-14T02:00:50;99077.59;;;12.22;60.82
44974;BME280;60981;50.720;11.342;2023-06-14T02:01:52;99083.50;;;12.24;60.74
44974;BME280;60981;50.720;11.342;2023-06-14T02:02:55;99080.25;;;12.22;60.82
44974;BME280;60981;50.720;11.342;2023-06-14T02:03:57;99117.00;;;12.43;60.60
44974;BME280;60981;50.720;11.342;2023-06-14T02:04:59;99096.00;;;12.24;60.82
44974;BME280;60981;50.720;11.342;2023-06-14T02:06:01;99093.13;;;12.25;60.66
44974;BME280;60981;50.720;11.342;2023-06-14T02:07:03;99114.22;;;12.38;60.86
44974;BME280;60981;50.720;11.342;2023-06-14T02:08:06;99109.81;;;12.32;60.91
44974;BME280;60981;50.720;11.342;2023-06-14T02:09:08;99117.00;;;12.32;60.95
44974;BME280;60981;50.720;11.342;2023-06-14T02:10:10;99088.38;;;12.15;61.10
44974;BME280;60981;50.720;11.342;2023-06-14T02:11:13;99098.34;;;12.20;61.13
44974;BME280;60981;50.720;11.342;2023-06-14T02:12:15;99109.47;;;12.29;61.46
44974;BME280;60981;50.720;11.342;2023-06-14T02:13:16;99089.63;;;12.13;61.58
44974;BME280;60981;50.720;11.342;2023-06-14T02:14:18;99114.19;;;12.27;62.00
44974;BME280;60981;50.720;11.342;2023-06-14T02:15:20;99091.59;;;12.06;62.11
44974;BME280;60981;50.720;11.342;2023-06-14T02:16:23;99126.38;;;12.23;62.34
44974;BME280;60981;50.720;11.342;2023-06-14T02:17:26;99124.16;;;12.20;62.44
44974;BME280;60981;50.720;11.342;2023-06-14T02:18:28;99112.69;;;12.19;62.38
44974;BME280;60981;50.720;11.342;2023-06-14T02:19:30;99093.00;;;12.08;62.22
44974;BME280;60981;50.720;11.342;2023-06-14T02:20:32;99113.03;;;12.23;62.49
44974;BME280;60981;50.720;11.342;2023-06-14T02:21:35;99101.69;;;12.15;62.36
44974;BME280;60981;50.720;11.342;2023-06-14T02:22:36;99120.13;;;12.29;62.32
44974;BME280;60981;50.720;11.342;2023-06-14T02:23:38;99107.38;;;12.19;62.40
44974;BME280;60981;50.720;11.342;2023-06-14T02:24:41;99105.63;;;12.25;62.22
44974;BME280;60981;50.720;11.342;2023-06-14T02:25:43;99103.44;;;12.22;62.08
44974;BME280;60981;50.720;11.342;2023-06-14T02:26:48;99073.53;;;11.96;61.90
44974;BME280;60981;50.720;11.342;2023-06-14T02:27:50;99119.41;;;12.22;61.71
44974;BME280;60981;50.720;11.342;2023-06-14T02:28:52;62910.69;;;-145.11;100.00
44974;BME280;60981;50.720;11.342;2023-06-14T02:29:54;62910.69;;;-145.11;100.00
44974;BME280;60981;50.720;11.342;2023-06-14T02:30:56;62910.69;;;-145.11;100.00
44974;BME280;60981;50.720;11.342;2023-06-14T02:31:58;62910.69;;;-145.11;100.00
44974;BME280;60981;50.720;11.342;2023-06-14T02:33:00;62910.69;;;-145.11;100.00
44974;BME280;60981;50.720;11.342;2023-06-14T02:34:02;62910.69;;;-145.11;100.00
44974;BME280;60981;50.720;11.342;2023-06-14T02:35:04;62910.69;;;-145.11;100.00
44974;BME280;60981;50.720;11.342;2023-06-14T02:36:06;62910.69;;;-145.11;100.00
44974;BME280;60981;50.720;11.342;2023-06-14T02:37:08;62910.69;;;-145.11;100.00
44974;BME280;60981;50.720;11.342;2023-06-14T02:38:10;62910.69;;;-145.11;100.00
44974;BME280;60981;50.720;11.342;2023-06-14T02:39:13;62910.69;;;-145.11;100.00
44974;BME280;60981;50.720;11.342;2023-06-14T02:40:15;62910.69;;;-145.11;100.00
44974;BME280;60981;50.720;11.342;2023-06-14T02:41:18;62910.69;;;-145.11;100.00
44974;BME280;60981;50.720;11.342;2023-06-14T02:42:20;62910.69;;;-145.11;100.00
44974;BME280;60981;50.720;11.342;2023-06-14T02:43:22;62910.69;;;-145.11;100.00
44974;BME280;60981;50.720;11.342;2023-06-14T02:44:24;62910.69;;;-145.11;100.00
44974;BME280;60981;50.720;11.342;2023-06-14T02:45:27;62910.69;;;-145.11;100.00
44974;BME280;60981;50.720;11.342;2023-06-14T02:46:29;62910.69;;;-145.11;100.00
44974;BME280;60981;50.720;11.342;2023-06-14T02:47:31;62910.69;;;-145.11;100.00
44974;BME280;60981;50.720;11.342;2023-06-14T02:48:33;62910.69;;;-145.11;100.00
44974;BME280;60981;50.720;11.342;2023-06-14T02:49:35;62910.69;;;-145.11;100.00
44974;BME280;60981;50.720;11.342;2023-06-14T02:50:37;62910.69;;;-145.11;100.00
44974;BME280;60981;50.720;11.342;2023-06-14T02:51:39;62910.69;;;-145.11;100.00
44974;BME280;60981;50.720;11.342;2023-06-14T02:52:42;62910.69;;;-145.11;100.00
44974;BME280;60981;50.720;11.342;2023-06-14T02:53:46;62910.69;;;-145.11;100.00
44974;BME280;60981;50.720;11.342;2023-06-14T02:54:48;62910.69;;;-145.11;100.00
44974;BME280;60981;50.720;11.342;2023-06-14T02:55:50;62910.69;;;-145.11;100.00
44974;BME280;60981;50.720;11.342;2023-06-14T02:56:54;62910.69;;;-145.11;100.00
44974;BME280;60981;50.720;11.342;2023-06-14T02:57:56;62910.69;;;-145.11;100.00
44974;BME280;60981;50.720;11.342;2023-06-14T02:58:57;62910.69;;;-145.11;100.00
44974;BME280;60981;50.720;11.342;2023-06-14T02:59:59;62910.69;;;-145.11;100.00
44974;BME280;60981;50.720;11.342;2023-06-14T03:01:02;62910.69;;;-145.11;100.00
44974;BME280;60981;50.720;11.342;2023-06-14T03:02:05;62910.69;;;-145.11;100.00
44974;BME280;60981;50.720;11.342;2023-06-14T03:03:07;62910.69;;;-145.11;100.00
44974;BME280;60981;50.720;11.342;2023-06-14T03:04:16;62910.69;;;-145.11;100.00
44974;BME280;60981;50.720;11.342;2023-06-14T03:05:17;62910.69;;;-145.11;100.00
44974;BME280;60981;50.720;11.342;2023-06-14T03:06:22;62910.69;;;-145.11;100.00
44974;BME280;60981;50.720;11.342;2023-06-14T03:07:28;62910.69;;;-145.11;100.00
44974;BME280;60981;50.720;11.342;2023-06-14T03:08:31;62910.69;;;-145.11;100.00
44974;BME280;60981;50.720;11.342;2023-06-14T03:09:40;62910.69;;;-145.11;100.00
44974;BME280;60981;50.720;11.342;2023-06-14T03:10:42;62910.69;;;-145.11;100.00
44974;BME280;60981;50.720;11.342;2023-06-14T03:11:45;62910.69;;;-145.11;100.00
44974;BME280;60981;50.720;11.342;2023-06-14T03:12:47;62910.69;;;-145.11;100.00
44974;BME280;60981;50.720;11.342;2023-06-14T03:13:49;62910.69;;;-145.11;100.00
44974;BME280;60981;50.720;11.342;2023-06-14T03:14:52;62910.69;;;-145.11;100.00
44974;BME280;60981;50.720;11.342;2023-06-14T03:15:54;62910.69;;;-145.11;100.00
44974;BME280;60981;50.720;11.342;2023-06-14T03:16:58;62910.69;;;-145.11;100.00
44974;BME280;60981;50.720;11.342;2023-06-14T03:18:00;62910.69;;;-145.11;100.00
44974;BME280;60981;50.720;11.342;2023-06-14T03:19:02;62910.69;;;-145.11;100.00
44974;BME280;60981;50.720;11.342;2023-06-14T03:20:04;62910.69;;;-145.11;100.00
44974;BME280;60981;50.720;11.342;2023-06-14T03:21:07;62910.69;;;-145.11;100.00
44974;BME280;60981;50.720;11.342;2023-06-14T03:22:10;62910.69;;;-145.11;100.00
44974;BME280;60981;50.720;11.342;2023-06-14T03:23:13;62910.69;;;-145.11;100.00
44974;BME280;60981;50.720;11.342;2023-06-14T03:24:15;62910.69;;;-145.11;100.00
44974;BME280;60981;50.720;11.342;2023-06-14T03:25:20;62910.69;;;-145.11;100.00
44974;BME280;60981;50.720;11.342;2023-06-14T03:26:23;62910.69;;;-145.11;100.00
44974;BME280;60981;50.720;11.342;2023-06-14T03:27:25;62910.69;;;-145.11;100.00
44974;BME280;60981;50.720;11.342;2023-06-14T03:28:29;62910.69;;;-145.11;100.00
44974;BME280;60981;50.720;11.342;2023-06-14T03:29:31;62910.69;;;-145.11;100.00
44974;BME280;60981;50.720;11.342;2023-06-14T03:30:33;62910.69;;;-145.11;100.00
44974;BME280;60981;50.720;11.342;2023-06-14T03:31:35;62910.69;;;-145.11;100.00
44974;BME280;60981;50.720;11.342;2023-06-14T03:32:37;62910.69;;;-145.11;100.00
44974;BME280;60981;50.720;11.342;2023-06-14T03:33:39;62910.69;;;-145.11;100.00
44974;BME280;60981;50.720;11.342;2023-06-14T03:34:41;62910.69;;;-145.11;100.00
44974;BME280;60981;50.720;11.342;2023-06-14T03:35:44;62910.69;;;-145.11;100.00
44974;BME280;60981;50.720;11.342;2023-06-14T03:36:46;62910.69;;;-145.11;100.00
44974;BME280;60981;50.720;11.342;2023-06-14T03:37:48;62910.69;;;-145.11;100.00
44974;BME280;60981;50.720;11.342;2023-06-14T03:38:50;62910.69;;;-145.11;100.00
44974;BME280;60981;50.720;11.342;2023-06-14T03:39:51;62910.69;;;-145.11;100.00
44974;BME280;60981;50.720;11.342;2023-06-14T03:40:54;62910.69;;;-145.11;100.00
44974;BME280;60981;50.720;11.342;2023-06-14T03:41:56;62910.69;;;-145.11;100.00
44974;BME280;60981;50.720;11.342;2023-06-14T03:42:58;62910.69;;;-145.11;100.00
44974;BME280;60981;50.720;11.342;2023-06-14T03:44:00;62910.69;;;-145.11;100.00
44974;BME280;60981;50.720;11.342;2023-06-14T03:45:02;62910.69;;;-145.11;100.00
44974;BME280;60981;50.720;11.342;2023-06-14T03:46:04;62910.69;;;-145.11;100.00
44974;BME280;60981;50.720;11.342;2023-06-14T03:47:06;62910.69;;;-145.11;100.00
44974;BME280;60981;50.720;11.342;2023-06-14T03:48:10;62910.69;;;-145.11;100.00
44974;BME280;60981;50.720;11.342;2023-06-14T03:49:13;62910.69;;;-145.11;100.00
44974;BME280;60981;50.720;11.342;2023-06-14T03:50:15;62910.69;;;-145.11;100.00
44974;BME280;60981;50.720;11.342;2023-06-14T03:51:17;62910.69;;;-145.11;100.00
44974;BME280;60981;50.720;11.342;2023-06-14T03:52:20;62910.69;;;-145.11;100.00
44974;BME280;60981;50.720;11.342;2023-06-14T03:53:23;62910.69;;;-145.11;100.00
44974;BME280;60981;50.720;11.342;2023-06-14T03:54:25;62910.69;;;-145.11;100.00
44974;BME280;60981;50.720;11.342;2023-06-14T03:55:49;62910.69;;;-145.11;100.00
44974;BME280;60981;50.720;11.342;2023-06-14T03:56:57;62910.69;;;-145.11;100.00
44974;BME280;60981;50.720;11.342;2023-06-14T03:57:59;62910.69;;;-145.11;100.00
44974;BME280;60981;50.720;11.342;2023-06-14T03:59:02;62910.69;;;-145.11;100.00
44974;BME280;60981;50.720;11.342;2023-06-14T04:00:04;62910.69;;;-145.11;100.00
44974;BME280;60981;50.720;11.342;2023-06-14T04:01:07;62910.69;;;-145.11;100.00
44974;BME280;60981;50.720;11.342;2023-06-14T04:02:09;62910.69;;;-145.11;100.00
44974;BME280;60981;50.720;11.342;2023-06-14T04:03:12;62910.69;;;-145.11;100.00
44974;BME280;60981;50.720;11.342;2023-06-14T04:04:15;62910.69;;;-145.11;100.00
44974;BME280;60981;50.720;11.342;2023-06-14T04:05:20;62910.69;;;-145.11;100.00
44974;BME280;60981;50.720;11.342;2023-06-14T04:06:22;62910.69;;;-145.11;100.00
44974;BME280;60981;50.720;11.342;2023-06-14T04:07:26;62910.69;;;-145.11;100.00
44974;BME280;60981;50.720;11.342;2023-06-14T04:08:30;62910.69;;;-145.11;100.00
44974;BME280;60981;50.720;11.342;2023-06-14T04:09:32;62910.69;;;-145.11;100.00
44974;BME280;60981;50.720;11.342;2023-06-14T04:10:35;62910.69;;;-145.11;100.00
44974;BME280;60981;50.720;11.342;2023-06-14T04:11:36;62910.69;;;-145.11;100.00
44974;BME280;60981;50.720;11.342;2023-06-14T04:12:39;62910.69;;;-145.11;100.00
44974;BME280;60981;50.720;11.342;2023-06-14T04:13:44;62910.69;;;-145.11;100.00
44974;BME280;60981;50.720;11.342;2023-06-14T04:14:46;62910.69;;;-145.11;100.00
44974;BME280;60981;50.720;11.342;2023-06-14T04:15:48;62910.69;;;-145.11;100.00
44974;BME280;60981;50.720;11.342;2023-06-14T04:16:50;62910.69;;;-145.11;100.00
44974;BME280;60981;50.720;11.342;2023-06-14T04:17:52;62910.69;;;-145.11;100.00
44974;BME280;60981;50.720;11.342;2023-06-14T04:19:00;62910.69;;;-145.11;100.00
44974;BME280;60981;50.720;11.342;2023-06-14T04:20:02;62910.69;;;-145.11;100.00
44974;BME280;60981;50.720;11.342;2023-06-14T04:21:06;62910.69;;;-145.11;100.00
44974;BME280;60981;50.720;11.342;2023-06-14T04:22:10;62910.69;;;-145.11;100.00
44974;BME280;60981;50.720;11.342;2023-06-14T04:23:14;62910.69;;;-145.11;100.00
44974;BME280;60981;50.720;11.342;2023-06-14T04:24:17;62910.69;;;-145.11;100.00
44974;BME280;60981;50.720;11.342;2023-06-14T04:25:19;62910.69;;;-145.11;100.00
44974;BME280;60981;50.720;11.342;2023-06-14T04:26:24;62910.69;;;-145.11;100.00
44974;BME280;60981;50.720;11.342;2023-06-14T04:27:31;99304.03;;;14.56;54.71
44974;BME280;60981;50.720;11.342;2023-06-14T04:28:36;99293.53;;;14.66;54.29
44974;BME280;60981;50.720;11.342;2023-06-14T04:29:42;99335.03;;;14.68;54.34
44974;BME280;60981;50.720;11.342;2023-06-14T04:30:45;62910.69;;;-145.11;100.00
44974;BME280;60981;50.720;11.342;2023-06-14T04:31:48;62910.69;;;-145.11;100.00
44974;BME280;60981;50.720;11.342;2023-06-14T04:32:51;62910.69;;;-145.11;100.00
44974;BME280;60981;50.720;11.342;2023-06-14T04:33:56;99753.19;;;15.27;52.59
44974;BME280;60981;50.720;11.342;2023-06-14T04:34:58;99816.97;;;15.30;52.63
44974;BME280;60981;50.720;11.342;2023-06-14T04:36:01;99836.31;;;15.21;52.59
44974;BME280;60981;50.720;11.342;2023-06-14T04:37:04;99727.81;;;15.07;52.89
44974;BME280;60981;50.720;11.342;2023-06-14T04:38:10;99744.69;;;14.95;53.73
44974;BME280;60981;50.720;11.342;2023-06-14T04:39:12;99714.69;;;14.93;54.06
44974;BME280;60981;50.720;11.342;2023-06-14T04:40:14;99727.25;;;14.81;54.04
44974;BME280;60981;50.720;11.342;2023-06-14T04:41:16;99726.44;;;14.81;54.21
44974;BME280;60981;50.720;11.342;2023-06-14T04:42:20;99760.97;;;14.82;54.38
44974;BME280;60981;50.720;11.342;2023-06-14T04:43:22;99761.09;;;14.76;54.51
44974;BME280;60981;50.720;11.342;2023-06-14T04:44:27;99759.34;;;14.69;54.70
44974;BME280;60981;50.720;11.342;2023-06-14T04:45:33;99703.97;;;14.58;54.78
44974;BME280;60981;50.720;11.342;2023-06-14T04:46:36;99699.88;;;14.56;55.22
44974;BME280;60981;50.720;11.342;2023-06-14T04:47:50;99819.72;;;14.47;55.46
44974;BME280;60981;50.720;11.342;2023-06-14T04:48:53;99743.81;;;14.48;55.51
44974;BME280;60981;50.720;11.342;2023-06-14T04:49:58;99686.78;;;14.36;56.25
44974;BME280;60981;50.720;11.342;2023-06-14T04:51:02;99609.94;;;14.20;56.41
44974;BME280;60981;50.720;11.342;2023-06-14T04:52:05;99632.00;;;14.15;56.92
44974;BME280;60981;50.720;11.342;2023-06-14T04:53:08;99590.63;;;14.06;57.08
44974;BME280;60981;50.720;11.342;2023-06-14T04:54:10;99604.34;;;14.10;57.15
44974;BME280;60981;50.720;11.342;2023-06-14T04:55:15;99575.41;;;14.06;57.01
44974;BME280;60981;50.720;11.342;2023-06-14T04:56:18;99603.16;;;14.05;57.71
44974;BME280;60981;50.720;11.342;2023-06-14T04:57:19;99556.34;;;13.91;58.01
44974;BME280;60981;50.720;11.342;2023-06-14T04:58:23;99463.63;;;13.80;58.32
44974;BME280;60981;50.720;11.342;2023-06-14T04:59:26;99423.91;;;13.60;58.45
44974;BME280;60981;50.720;11.342;2023-06-14T05:00:27;99389.31;;;13.54;58.75
44974;BME280;60981;50.720;11.342;2023-06-14T05:01:30;99317.22;;;13.54;59.01
44974;BME280;60981;50.720;11.342;2023-06-14T05:02:33;99246.19;;;13.53;59.08
44974;BME280;60981;50.720;11.342;2023-06-14T05:03:37;99255.34;;;13.57;59.29
44974;BME280;60981;50.720;11.342;2023-06-14T05:04:39;99261.59;;;13.62;59.51
44974;BME280;60981;50.720;11.342;2023-06-14T05:05:41;99220.88;;;13.43;59.69
44974;BME280;60981;50.720;11.342;2023-06-14T05:06:44;99236.53;;;13.52;59.78
44974;BME280;60981;50.720;11.342;2023-06-14T05:07:46;99246.28;;;13.58;59.70
44974;BME280;60981;50.720;11.342;2023-06-14T05:08:49;99212.28;;;13.41;59.60
44974;BME280;60981;50.720;11.342;2023-06-14T05:09:51;99221.09;;;13.54;59.94
44974;BME280;60981;50.720;11.342;2023-06-14T05:10:53;99232.34;;;13.56;59.85
44974;BME280;60981;50.720;11.342;2023-06-14T05:11:55;99226.44;;;13.54;60.06
44974;BME280;60981;50.720;11.342;2023-06-14T05:12:57;99225.41;;;13.55;59.82
44974;BME280;60981;50.720;11.342;2023-06-14T05:13:59;99240.69;;;13.71;59.74
44974;BME280;60981;50.720;11.342;2023-06-14T05:15:02;99238.84;;;13.60;59.55
44974;BME280;60981;50.720;11.342;2023-06-14T05:16:04;99229.22;;;13.59;59.61
44974;BME280;60981;50.720;11.342;2023-06-14T05:17:06;99242.19;;;13.67;59.42
44974;BME280;60981;50.720;11.342;2023-06-14T05:18:08;99232.34;;;13.56;59.71
44974;BME280;60981;50.720;11.342;2023-06-14T05:19:11;99231.41;;;13.62;59.35
44974;BME280;60981;50.720;11.342;2023-06-14T05:20:15;99241.97;;;13.68;59.90
44974;BME280;60981;50.720;11.342;2023-06-14T05:21:17;99239.53;;;13.67;59.49
44974;BME280;60981;50.720;11.342;2023-06-14T05:22:20;99233.84;;;13.63;59.63
44974;BME280;60981;50.720;11.342;2023-06-14T05:23:22;99232.22;;;13.62;59.51
44974;BME280;60981;50.720;11.342;2023-06-14T05:24:23;99227.13;;;13.61;59.38
44974;BME280;60981;50.720;11.342;2023-06-14T05:25:26;99219.59;;;13.58;59.89
44974;BME280;60981;50.720;11.342;2023-06-14T05:26:29;99218.78;;;13.57;59.57
44974;BME280;60981;50.720;11.342;2023-06-14T05:27:32;99217.50;;;13.60;59.61
44974;BME280;60981;50.720;11.342;2023-06-14T05:28:36;99224.66;;;13.71;59.74
44974;BME280;60981;50.720;11.342;2023-06-14T05:29:38;99232.19;;;13.74;59.50
44974;BME280;60981;50.720;11.342;2023-06-14T05:30:39;99240.53;;;13.78;59.36
44974;BME280;60981;50.720;11.342;2023-06-14T05:31:41;99239.16;;;13.75;59.32
44974;BME280;60981;50.720;11.342;2023-06-14T05:32:43;99234.84;;;13.74;59.66
44974;BME280;60981;50.720;11.342;2023-06-14T05:33:45;99261.56;;;13.74;59.12
44974;BME280;60981;50.720;11.342;2023-06-14T05:34:47;99241.84;;;13.63;59.37
44974;BME280;60981;50.720;11.342;2023-06-14T05:35:49;99275.47;;;13.88;58.78